createdAt,value
2022-09-20T00:00:25.435Z,74.77
2022-09-20T00:03:11.032Z,74.27
2022-09-20T00:06:00.405Z,73.80
2022-09-20T00:08:46.498Z,73.89
2022-09-20T00:11:32.776Z,73.95
2022-09-20T00:14:18.275Z,74.31
2022-09-20T00:17:03.802Z,74.94
2022-09-20T00:19:49.428Z,74.51
2022-09-20T00:22:35.024Z,74.79
2022-09-20T00:25:20.631Z,74.71
2022-09-20T00:28:06.217Z,74.59
2022-09-20T00:30:52.178Z,74.09
2022-09-20T00:33:55.885Z,74.10
2022-09-20T00:36:41.343Z,74.05
2022-09-20T00:39:26.670Z,73.95
2022-09-20T00:42:15.420Z,73.59
2022-09-20T00:45:21.148Z,73.36
2022-09-20T00:48:13.311Z,73.74
2022-09-20T00:51:08.093Z,73.37
2022-09-20T00:53:54.971Z,74.12
2022-09-20T00:56:44.053Z,73.59
2022-09-20T00:59:38.048Z,73.71
2022-09-20T01:02:26.111Z,73.79
2022-09-20T01:05:13.565Z,73.83
2022-09-20T01:07:59.214Z,73.52
2022-09-20T01:10:44.947Z,73.47
2022-09-20T01:13:30.200Z,73.29
2022-09-20T01:16:16.168Z,73.33
2022-09-20T01:19:08.105Z,73.39
2022-09-20T01:21:54.136Z,72.92
2022-09-20T01:25:06.051Z,73.48
2022-09-20T01:27:52.269Z,73.01
2022-09-20T01:30:45.095Z,73.22
2022-09-20T01:33:35.647Z,73.55
2022-09-20T01:36:28.860Z,73.70
2022-09-20T01:39:34.439Z,73.20
2022-09-20T01:42:22.994Z,73.49
2022-09-20T01:45:31.556Z,73.63
2022-09-20T01:48:33.057Z,73.28
2022-09-20T01:51:37.412Z,72.82
2022-09-20T01:54:41.629Z,72.87
2022-09-20T01:57:38.248Z,72.68
2022-09-20T02:00:31.699Z,72.86
2022-09-20T02:03:36.003Z,72.83
2022-09-20T02:06:24.618Z,73.15
2022-09-20T02:09:13.335Z,73.67
2022-09-20T02:12:17.706Z,74.16
2022-09-20T02:15:26.508Z,74.30
2022-09-20T02:18:26.949Z,73.86
2022-09-20T02:21:27.764Z,74.12
2022-09-20T02:24:41.752Z,74.08
2022-09-20T02:27:49.883Z,74.31
2022-09-20T02:30:44.572Z,74.21
2022-09-20T02:33:29.986Z,74.25
2022-09-20T02:36:33.661Z,74.17
2022-09-20T02:39:44.395Z,74.63
2022-09-20T02:42:36.014Z,74.44
2022-09-20T02:45:36.572Z,74.43
2022-09-20T02:48:27.668Z,74.70
2022-09-20T02:51:13.332Z,74.68
2022-09-20T02:53:58.696Z,74.58
2022-09-20T02:56:46.987Z,74.67
2022-09-20T02:59:32.276Z,74.99
2022-09-20T03:02:36.506Z,74.45
2022-09-20T03:05:24.109Z,74.51
2022-09-20T03:08:18.383Z,75.01
2022-09-20T03:11:03.955Z,74.63
2022-09-20T03:14:05.373Z,74.67
2022-09-20T03:17:00.049Z,74.78
2022-09-20T03:20:04.967Z,75.16
2022-09-20T03:23:09.230Z,74.85
2022-09-20T03:26:02.148Z,74.86
2022-09-20T03:28:58.062Z,75.03
2022-09-20T03:32:02.860Z,74.99
2022-09-20T03:34:57.780Z,74.80
2022-09-20T03:37:54.430Z,74.78
2022-09-20T03:40:58.881Z,75.35
2022-09-20T03:43:52.310Z,75.15
2022-09-20T03:46:47.591Z,75.00
2022-09-20T03:49:47.095Z,75.49
2022-09-20T03:52:47.389Z,75.57
2022-09-20T03:55:38.674Z,75.80
2022-09-20T03:58:36.421Z,75.55
2022-09-20T04:01:28.066Z,75.53
2022-09-20T04:04:19.831Z,75.33
2022-09-20T04:07:24.327Z,75.28
2022-09-20T04:10:28.330Z,75.81
2022-09-20T04:13:22.830Z,75.75
2022-09-20T04:16:27.207Z,75.63
2022-09-20T04:19:33.232Z,75.86
2022-09-20T04:22:20.955Z,75.66
2022-09-20T04:25:12.854Z,75.97
2022-09-20T04:28:21.168Z,76.26
2022-09-20T04:31:15.530Z,76.25
2022-09-20T04:34:02.442Z,76.31
2022-09-20T04:37:17.409Z,76.62
2022-09-20T04:40:02.681Z,76.43
2022-09-20T04:43:19.934Z,76.68
2022-09-20T04:46:05.472Z,76.58
2022-09-20T04:49:05.070Z,76.42
2022-09-20T04:51:58.175Z,76.79
2022-09-20T04:54:55.585Z,76.94
2022-09-20T04:58:04.705Z,77.07
2022-09-20T05:01:09.652Z,76.62
2022-09-20T05:03:55.338Z,76.83
2022-09-20T05:06:59.226Z,76.77
2022-09-20T05:09:53.419Z,77.52
2022-09-20T05:13:07.555Z,77.32
2022-09-20T05:16:11.703Z,77.66
2022-09-20T05:19:07.551Z,78.06
2022-09-20T05:22:22.110Z,78.50
2022-09-20T05:25:19.197Z,78.04
2022-09-20T05:28:31.052Z,78.61
2022-09-20T05:31:25.361Z,78.71
2022-09-20T05:34:25.777Z,78.99
2022-09-20T05:37:14.150Z,78.59
2022-09-20T05:40:05.693Z,78.22
2022-09-20T05:43:11.861Z,78.48
2022-09-20T05:46:03.738Z,78.84
2022-09-20T05:48:57.915Z,78.97
2022-09-20T05:51:49.517Z,78.65
2022-09-20T05:54:35.514Z,78.70
2022-09-20T05:57:39.322Z,78.24
2022-09-20T06:00:29.443Z,78.27
2022-09-20T06:03:34.184Z,78.23
2022-09-20T06:06:21.337Z,78.22
2022-09-20T06:09:17.337Z,78.29
2022-09-20T06:12:12.097Z,77.88
2022-09-20T06:15:01.898Z,77.88
2022-09-20T06:17:57.641Z,78.01
2022-09-20T06:20:51.938Z,77.56
2022-09-20T06:23:37.273Z,77.92
2022-09-20T06:26:27.792Z,77.64
2022-09-20T06:29:13.893Z,77.48
2022-09-20T06:31:59.412Z,78.33
2022-09-20T06:34:45.341Z,78.54
2022-09-20T06:38:29.845Z,78.85
2022-09-20T06:41:30.697Z,78.98
2022-09-20T06:44:22.510Z,79.07
2022-09-20T06:47:11.737Z,78.49
2022-09-20T06:49:59.331Z,78.38
2022-09-20T06:52:46.695Z,78.53
2022-09-20T06:55:38.964Z,78.36
2022-09-20T06:58:27.173Z,78.67
2022-09-20T07:01:13.829Z,78.35
2022-09-20T07:03:59.298Z,77.86
2022-09-20T07:06:44.571Z,77.82
2022-09-20T07:09:29.654Z,78.24
2022-09-20T07:12:16.361Z,77.60
2022-09-20T07:15:04.086Z,77.45
2022-09-20T07:17:49.491Z,76.78
2022-09-20T07:20:35.500Z,77.03
2022-09-20T07:23:20.685Z,77.01
2022-09-20T07:26:06.517Z,75.74
2022-09-20T07:28:52.169Z,75.04
2022-09-20T07:31:37.722Z,74.90
2022-09-20T07:34:23.225Z,73.71
2022-09-20T07:37:08.852Z,73.10
2022-09-20T07:39:54.586Z,72.44
2022-09-20T07:42:40.233Z,73.56
2022-09-20T07:45:25.983Z,73.48
2022-09-20T07:48:15.517Z,72.68
2022-09-20T07:51:08.453Z,71.96
2022-09-20T07:53:54.345Z,72.63
2022-09-20T07:56:39.901Z,73.13
2022-09-20T07:59:26.037Z,73.69
2022-09-20T08:02:15.875Z,71.77
2022-09-20T08:05:04.804Z,71.71
2022-09-20T08:07:50.092Z,71.97
2022-09-20T08:10:35.456Z,71.82
2022-09-20T08:16:27.634Z,70.28
2022-09-20T08:19:17.838Z,70.43
2022-09-20T08:22:03.164Z,70.32
2022-09-20T08:24:48.892Z,70.77
2022-09-20T08:27:33.980Z,70.20
2022-09-20T08:30:19.216Z,70.38
2022-09-20T08:33:05.158Z,69.56
2022-09-20T08:35:50.575Z,69.30
2022-09-20T08:41:41.964Z,69.39
2022-09-20T08:44:45.816Z,69.06
2022-09-20T08:47:33.210Z,68.69
2022-09-20T08:50:19.981Z,69.52
2022-09-20T08:53:05.562Z,70.64
2022-09-20T08:55:50.746Z,68.89
2022-09-20T08:58:36.408Z,69.35
2022-09-20T09:01:23.501Z,69.21
2022-09-20T09:04:19.484Z,68.78
2022-09-20T09:07:04.990Z,68.91
2022-09-20T09:09:51.919Z,69.39
2022-09-20T09:12:37.384Z,69.32
2022-09-20T09:15:32.729Z,69.75
2022-09-20T09:18:18.173Z,70.19
2022-09-20T09:21:04.965Z,70.17
2022-09-20T09:23:52.130Z,70.47
2022-09-20T09:26:43.406Z,70.85
2022-09-20T09:29:31.732Z,71.15
2022-09-20T09:32:29.188Z,71.23
2022-09-20T09:35:31.567Z,71.50
2022-09-20T09:38:23.419Z,71.66
2022-09-20T09:41:17.907Z,71.66
2022-09-20T09:44:09.659Z,71.95
2022-09-20T09:46:56.608Z,71.73
2022-09-20T09:49:59.718Z,71.24
2022-09-20T09:52:58.244Z,71.12
2022-09-20T09:56:02.253Z,72.25
2022-09-20T09:59:10.638Z,71.64
2022-09-20T10:01:56.358Z,71.16
2022-09-20T10:04:57.444Z,71.05
2022-09-20T10:08:03.173Z,71.10
2022-09-20T10:11:00.889Z,71.24
2022-09-20T10:14:06.526Z,71.77
2022-09-20T10:16:53.086Z,71.23
2022-09-20T10:19:57.552Z,71.46
2022-09-20T10:23:14.707Z,71.81
2022-09-20T10:25:58.731Z,71.19
2022-09-20T10:29:03.299Z,72.24
2022-09-20T10:32:12.066Z,72.52
2022-09-20T10:35:05.082Z,71.67
2022-09-20T10:37:50.521Z,71.89
2022-09-20T10:41:13.303Z,71.70
2022-09-20T10:44:05.818Z,71.22
2022-09-20T10:47:08.470Z,70.84
2022-09-20T10:50:21.297Z,70.44
2022-09-20T10:59:58.493Z,71.30
2022-09-20T11:02:50.106Z,70.53
2022-09-20T11:05:42.050Z,70.59
2022-09-20T11:12:42.809Z,69.88
2022-09-20T11:15:32.524Z,70.56
2022-09-20T11:18:33.266Z,71.84
2022-09-20T11:21:19.994Z,70.73
2022-09-20T11:24:05.457Z,71.12
2022-09-20T11:26:53.122Z,71.76
2022-09-20T11:29:50.298Z,71.42
2022-09-20T11:32:36.699Z,72.38
2022-09-20T11:35:22.460Z,73.63
2022-09-20T11:38:27.180Z,74.42
2022-09-20T11:41:22.708Z,75.63
2022-09-20T11:44:14.966Z,76.11
2022-09-20T11:47:26.611Z,76.96
2022-09-20T11:50:28.905Z,77.24
2022-09-20T11:54:07.697Z,77.67
2022-09-20T11:56:56.601Z,78.00
2022-09-20T11:59:42.459Z,78.56
2022-09-20T12:02:28.349Z,78.99
2022-09-20T12:05:35.312Z,78.59
2022-09-20T12:08:50.333Z,78.82
2022-09-20T12:11:38.852Z,79.07
2022-09-20T12:14:25.878Z,79.28
2022-09-20T12:17:29.590Z,79.62
2022-09-20T12:23:41.232Z,80.28
2022-09-20T12:26:26.407Z,80.02
2022-09-20T12:29:24.512Z,80.67
2022-09-20T12:32:29.112Z,80.01
2022-09-20T12:35:35.034Z,79.10
2022-09-20T12:38:20.753Z,79.26
2022-09-20T12:41:08.817Z,79.73
2022-09-20T12:43:54.380Z,79.47
2022-09-20T12:46:42.585Z,79.60
2022-09-20T12:49:54.326Z,79.86
2022-09-20T12:52:58.031Z,79.82
2022-09-20T12:55:51.566Z,79.57
2022-09-20T12:58:53.848Z,80.00
2022-09-20T13:01:39.555Z,80.42
2022-09-20T13:04:41.906Z,80.56
2022-09-20T13:07:33.910Z,80.56
2022-09-20T13:10:24.234Z,80.99
2022-09-20T13:13:16.533Z,79.61
2022-09-20T13:16:05.723Z,79.42
2022-09-20T13:19:02.192Z,79.14
2022-09-20T13:22:17.586Z,79.08
2022-09-20T13:25:04.888Z,79.51
2022-09-20T13:28:10.411Z,79.95
2022-09-20T13:31:16.411Z,80.38
2022-09-20T13:34:14.084Z,80.15
2022-09-20T13:37:00.689Z,79.75
2022-09-20T13:39:46.765Z,79.03
2022-09-20T13:42:35.675Z,78.93
2022-09-20T13:45:22.070Z,78.00
2022-09-20T13:48:08.924Z,78.01
2022-09-20T13:50:54.993Z,78.71
2022-09-20T13:53:42.071Z,79.04
2022-09-20T13:56:28.842Z,79.03
2022-09-20T13:59:19.300Z,79.22
2022-09-20T14:02:04.692Z,79.48
2022-09-20T14:04:53.757Z,79.63
2022-09-20T14:07:39.132Z,79.90
2022-09-20T14:10:41.115Z,80.42
2022-09-20T14:13:26.540Z,80.67
2022-09-20T14:16:12.583Z,81.00
2022-09-20T14:18:59.120Z,80.77
2022-09-20T14:21:45.083Z,81.05
2022-09-20T14:24:35.433Z,80.71
2022-09-20T14:27:21.792Z,80.18
2022-09-20T14:30:07.935Z,79.96
2022-09-20T14:32:54.843Z,78.89
2022-09-20T14:35:46.342Z,78.67
2022-09-20T14:38:32.957Z,77.72
2022-09-20T14:41:27.825Z,77.12
2022-09-20T14:44:33.130Z,77.43
2022-09-20T14:47:25.838Z,77.52
2022-09-20T14:50:30.282Z,77.54
2022-09-20T14:53:18.977Z,77.93
2022-09-20T14:56:04.409Z,78.54
2022-09-20T14:59:06.886Z,78.79
2022-09-20T15:02:13.576Z,78.93
2022-09-20T15:05:00.906Z,79.13
2022-09-20T15:07:46.902Z,79.63
2022-09-20T15:10:32.237Z,79.17
2022-09-20T15:13:18.368Z,79.53
2022-09-20T15:16:04.441Z,79.35
2022-09-20T15:18:49.984Z,79.50
2022-09-20T15:21:35.430Z,79.40
2022-09-20T15:24:21.024Z,79.61
2022-09-20T15:27:06.433Z,79.81
2022-09-20T15:29:51.948Z,80.06
2022-09-20T15:32:37.596Z,79.60
2022-09-20T15:35:23.017Z,80.09
2022-09-20T15:38:11.158Z,80.67
2022-09-20T15:40:56.734Z,80.43
2022-09-20T15:43:43.265Z,80.72
2022-09-20T15:46:29.360Z,81.14
2022-09-20T15:49:15.075Z,81.04
2022-09-20T15:52:00.959Z,81.05
2022-09-20T15:54:46.685Z,80.86
2022-09-20T15:57:32.117Z,80.91
2022-09-20T16:00:18.239Z,81.12
2022-09-20T16:03:03.443Z,80.43
2022-09-20T16:06:03.920Z,80.60
2022-09-20T16:08:50.524Z,80.47
2022-09-20T16:11:36.221Z,80.78
2022-09-20T16:14:21.704Z,80.71
2022-09-20T16:17:07.541Z,80.42
2022-09-20T16:19:58.105Z,80.16
2022-09-20T16:22:44.141Z,79.98
2022-09-20T16:25:30.174Z,79.87
2022-09-20T16:28:16.195Z,79.59
2022-09-20T16:31:02.131Z,79.44
2022-09-20T16:33:47.375Z,79.35
2022-09-20T16:36:33.231Z,79.20
2022-09-20T16:39:19.676Z,78.99
2022-09-20T16:42:06.035Z,78.63
2022-09-20T16:44:51.538Z,78.39
2022-09-20T16:47:41.102Z,78.24
2022-09-20T16:50:27.608Z,77.78
2022-09-20T16:53:13.887Z,77.59
2022-09-20T16:56:01.027Z,77.74
2022-09-20T16:58:47.269Z,77.53
2022-09-20T17:01:34.254Z,77.33
2022-09-20T17:04:21.266Z,77.36
2022-09-20T17:07:07.796Z,77.32
2022-09-20T17:10:00.733Z,77.35
2022-09-20T17:12:47.784Z,77.46
2022-09-20T17:15:35.081Z,77.78
2022-09-20T17:18:20.992Z,77.69
2022-09-20T17:21:06.963Z,77.53
2022-09-20T17:23:56.949Z,77.72
2022-09-20T17:26:44.852Z,77.89
2022-09-20T17:29:30.115Z,77.89
2022-09-20T17:32:15.846Z,77.58
2022-09-20T17:35:01.329Z,77.97
2022-09-20T17:37:46.881Z,78.18
2022-09-20T17:40:32.056Z,78.02
2022-09-20T17:43:17.224Z,78.33
2022-09-20T17:46:26.269Z,77.99
2022-09-20T17:49:13.295Z,78.26
2022-09-20T17:51:58.884Z,78.11
2022-09-20T17:54:45.551Z,78.47
2022-09-20T17:57:30.843Z,78.12
2022-09-20T18:00:16.446Z,78.08
2022-09-20T18:03:04.852Z,77.80
2022-09-20T18:05:52.128Z,77.22
2022-09-20T18:08:37.331Z,77.28
2022-09-20T18:11:25.046Z,77.21
2022-09-20T18:14:10.688Z,77.51
2022-09-20T18:16:58.937Z,77.65
2022-09-20T18:19:44.790Z,77.67
2022-09-20T18:22:30.110Z,77.92
2022-09-20T18:25:15.826Z,77.94
2022-09-20T18:28:01.485Z,77.85
2022-09-20T18:30:51.360Z,77.71
2022-09-20T18:33:38.872Z,77.83
2022-09-20T18:36:34.956Z,77.72
2022-09-20T18:39:24.255Z,77.74
2022-09-20T18:42:10.368Z,77.60
2022-09-20T18:44:56.063Z,77.90
2022-09-20T18:47:44.300Z,77.63
2022-09-20T18:50:29.942Z,77.78
2022-09-20T18:53:15.092Z,77.91
2022-09-20T18:56:19.217Z,78.74
2022-09-20T18:59:06.783Z,78.73
2022-09-20T19:01:55.446Z,78.13
2022-09-20T19:04:57.716Z,78.41
2022-09-20T19:07:52.046Z,78.19
2022-09-20T19:10:41.442Z,78.48
2022-09-20T19:13:35.721Z,78.25
2022-09-20T19:16:25.433Z,78.02
2022-09-20T19:19:21.647Z,78.22
2022-09-20T19:22:20.070Z,78.40
2022-09-20T19:25:25.881Z,78.15
2022-09-20T19:28:12.183Z,78.21
2022-09-20T19:30:58.220Z,77.85
2022-09-20T19:33:45.068Z,77.78
2022-09-20T19:36:30.544Z,77.69
2022-09-20T19:39:22.807Z,77.93
2022-09-20T19:42:08.215Z,77.88
2022-09-20T19:45:13.692Z,77.79
2022-09-20T19:48:02.050Z,78.00
2022-09-20T19:50:54.614Z,77.97
2022-09-20T19:53:40.193Z,78.22
2022-09-20T19:56:27.589Z,78.39
2022-09-20T19:59:13.013Z,78.49
2022-09-20T20:01:58.650Z,78.52
2022-09-20T20:04:43.830Z,78.59
2022-09-20T20:07:37.494Z,78.60
2022-09-20T20:10:22.643Z,78.67
2022-09-20T20:13:35.144Z,78.52
2022-09-20T20:16:26.326Z,78.34
2022-09-20T20:19:34.959Z,78.32
2022-09-20T20:22:39.584Z,78.31
2022-09-20T20:25:28.670Z,78.11
2022-09-20T20:28:14.189Z,78.20
2022-09-20T20:31:02.187Z,78.34
2022-09-20T20:33:48.120Z,78.25
2022-09-20T20:36:33.521Z,78.24
2022-09-20T20:39:19.691Z,78.15
2022-09-20T20:42:06.197Z,78.32
2022-09-20T20:44:51.816Z,78.81
2022-09-20T20:47:37.470Z,78.93
2022-09-20T20:50:22.488Z,79.42
2022-09-20T20:53:07.987Z,79.79
2022-09-20T20:55:59.474Z,79.95
2022-09-20T20:58:45.722Z,80.62
2022-09-20T21:01:35.967Z,80.80
2022-09-20T21:04:21.729Z,81.20
2022-09-20T21:07:07.312Z,81.82
2022-09-20T21:09:52.717Z,82.24
2022-09-20T21:12:38.184Z,82.82
2022-09-20T21:15:23.701Z,83.16
2022-09-20T21:18:10.508Z,83.23
2022-09-20T21:20:55.883Z,83.80
2022-09-20T21:23:41.454Z,84.09
2022-09-20T21:26:28.278Z,84.09
2022-09-20T21:29:14.770Z,84.33
2022-09-20T21:32:00.319Z,84.16
2022-09-20T21:34:45.613Z,84.59
2022-09-20T21:37:31.207Z,84.33
2022-09-20T21:40:16.455Z,84.38
2022-09-20T21:43:02.384Z,84.66
2022-09-20T21:45:47.976Z,84.54
2022-09-20T21:48:33.647Z,84.42
2022-09-20T21:51:20.488Z,84.35
2022-09-20T21:54:05.920Z,84.57
2022-09-20T21:56:55.611Z,84.24
2022-09-20T21:59:41.585Z,84.27
2022-09-20T22:02:27.550Z,84.54
2022-09-20T22:05:13.238Z,84.65
2022-09-20T22:07:58.634Z,84.60
2022-09-20T22:10:54.286Z,84.86
2022-09-20T22:13:41.344Z,84.76
2022-09-20T22:16:28.460Z,84.69
2022-09-20T22:19:15.006Z,84.91
2022-09-20T22:22:00.677Z,84.74
2022-09-20T22:24:46.052Z,84.78
2022-09-20T22:27:31.607Z,85.17
2022-09-20T22:30:17.115Z,85.00
2022-09-20T22:33:03.414Z,85.10
2022-09-20T22:35:48.913Z,84.87
2022-09-20T22:38:34.271Z,85.15
2022-09-20T22:41:20.334Z,85.41
2022-09-20T22:44:06.304Z,85.63
2022-09-20T22:46:51.558Z,85.17
2022-09-20T22:49:37.037Z,85.31
2022-09-20T22:52:22.655Z,85.64
2022-09-20T22:55:08.370Z,85.34
2022-09-20T22:57:54.100Z,84.62
2022-09-20T23:00:39.274Z,84.56
2022-09-20T23:03:25.554Z,84.14
2022-09-20T23:06:11.982Z,84.59
2022-09-20T23:08:58.392Z,84.89
2022-09-20T23:11:43.965Z,84.99
2022-09-20T23:14:29.135Z,85.15
2022-09-20T23:17:14.393Z,85.56
2022-09-20T23:19:59.893Z,85.58
2022-09-20T23:22:45.385Z,85.54
2022-09-20T23:25:31.146Z,85.10
2022-09-20T23:28:17.890Z,85.15
2022-09-20T23:31:07.709Z,85.58
2022-09-20T23:33:54.736Z,85.65
2022-09-20T23:36:40.525Z,85.73
2022-09-20T23:39:26.900Z,85.40
2022-09-20T23:42:12.279Z,85.62
2022-09-20T23:44:57.745Z,85.61
2022-09-20T23:47:47.048Z,85.73
2022-09-20T23:50:32.312Z,85.58
2022-09-20T23:53:18.483Z,85.58
2022-09-20T23:56:04.508Z,85.40
2022-09-20T23:58:50.230Z,85.66
